sensor_id;sensor_type;location;lat;lon;timestamp;pressure;altitude;pressure_sealevel;temperature;humidity
44751;BME280;30477;48.224;11.470;2023-06-22T00:01:08;96151.53;;;20.94;nan
44751;BME280;30477;48.224;11.470;2023-06-22T00:03:34;96140.59;;;20.91;nan
44751;BME280;30477;48.224;11.470;2023-06-22T00:05:59;96138.75;;;20.91;nan
44751;BME280;30477;48.224;11.470;2023-06-22T00:08:24;96127.44;;;20.84;nan
44751;BME280;30477;48.224;11.470;2023-06-22T00:10:49;96123.16;;;20.83;nan
44751;BME280;30477;48.224;11.470;2023-06-22T00:13:16;96113.06;;;20.80;nan
44751;BME280;30477;48.224;11.470;2023-06-22T00:15:43;96115.69;;;20.80;nan
44751;BME280;30477;48.224;11.470;2023-06-22T00:18:10;96108.41;;;20.82;nan
44751;BME280;30477;48.224;11.470;2023-06-22T00:20:36;96104.16;;;20.81;nan
44751;BME280;30477;48.224;11.470;2023-06-22T00:23:03;96100.91;;;20.79;nan
44751;BME280;30477;48.224;11.470;2023-06-22T00:25:39;96115.91;;;20.78;nan
44751;BME280;30477;48.224;11.470;2023-06-22T00:28:05;96117.13;;;20.76;nan
44751;BME280;30477;48.224;11.470;2023-06-22T00:30:32;96108.81;;;20.79;nan
44751;BME280;30477;48.224;11.470;2023-06-22T00:32:58;96108.59;;;20.80;nan
44751;BME280;30477;48.224;11.470;2023-06-22T00:35:24;96109.41;;;20.81;nan
44751;BME280;30477;48.224;11.470;2023-06-22T00:37:54;96117.53;;;20.79;nan
44751;BME280;30477;48.224;11.470;2023-06-22T00:40:25;96118.34;;;20.80;nan
44751;BME280;30477;48.224;11.470;2023-06-22T00:42:51;96122.56;;;20.81;nan
44751;BME280;30477;48.224;11.470;2023-06-22T00:45:16;96118.94;;;20.82;nan
44751;BME280;30477;48.224;11.470;2023-06-22T00:47:41;96105.78;;;20.82;nan
44751;BME280;30477;48.224;11.470;2023-06-22T00:50:08;96100.91;;;20.79;nan
44751;BME280;30477;48.224;11.470;2023-06-22T00:52:35;96105.59;;;20.77;nan
44751;BME280;30477;48.224;11.470;2023-06-22T00:55:02;96119.13;;;20.74;nan
44751;BME280;30477;48.224;11.470;2023-06-22T00:57:27;96119.56;;;20.71;nan
44751;BME280;30477;48.224;11.470;2023-06-22T00:59:53;96109.84;;;20.64;nan
44751;BME280;30477;48.224;11.470;2023-06-22T01:02:19;96109.00;;;20.64;nan
44751;BME280;30477;48.224;11.470;2023-06-22T01:04:44;96109.22;;;20.62;nan
44751;BME280;30477;48.224;11.470;2023-06-22T01:07:28;96107.38;;;20.56;nan
44751;BME280;30477;48.224;11.470;2023-06-22T01:12:25;96089.16;;;20.48;nan
44751;BME280;30477;48.224;11.470;2023-06-22T01:14:58;96090.34;;;20.39;nan
44751;BME280;30477;48.224;11.470;2023-06-22T01:17:27;96081.06;;;20.36;nan
44751;BME280;30477;48.224;11.470;2023-06-22T01:19:55;96078.03;;;20.33;nan
44751;BME280;30477;48.224;11.470;2023-06-22T01:22:24;96081.47;;;20.26;nan
44751;BME280;30477;48.224;11.470;2023-06-22T01:25:13;96068.53;;;20.32;nan
44751;BME280;30477;48.224;11.470;2023-06-22T01:28:04;96075.19;;;20.27;nan
44751;BME280;30477;48.224;11.470;2023-06-22T01:30:31;96079.44;;;20.28;nan
44751;BME280;30477;48.224;11.470;2023-06-22T01:33:00;96079.22;;;20.23;nan
44751;BME280;30477;48.224;11.470;2023-06-22T01:35:28;96068.50;;;20.18;nan
44751;BME280;30477;48.224;11.470;2023-06-22T01:37:54;96068.28;;;20.13;nan
44751;BME280;30477;48.224;11.470;2023-06-22T01:40:21;96074.16;;;20.15;nan
44751;BME280;30477;48.224;11.470;2023-06-22T01:42:47;96078.59;;;20.15;nan
44751;BME280;30477;48.224;11.470;2023-06-22T01:45:13;96075.16;;;20.07;nan
44751;BME280;30477;48.224;11.470;2023-06-22T01:47:40;96079.81;;;20.05;nan
44751;BME280;30477;48.224;11.470;2023-06-22T01:50:06;96074.13;;;20.02;nan
44751;BME280;30477;48.224;11.470;2023-06-22T01:52:31;96080.59;;;19.99;nan
44751;BME280;30477;48.224;11.470;2023-06-22T01:54:59;96083.44;;;19.98;nan
44751;BME280;30477;48.224;11.470;2023-06-22T01:57:25;96072.13;;;19.97;nan
44751;BME280;30477;48.224;11.470;2023-06-22T02:00:04;96083.63;;;20.03;nan
44751;BME280;30477;48.224;11.470;2023-06-22T02:02:43;96087.03;;;19.97;nan
44751;BME280;30477;48.224;11.470;2023-06-22T02:05:12;96081.41;;;19.93;nan
44751;BME280;30477;48.224;11.470;2023-06-22T02:08:07;96080.19;;;19.96;nan
44751;BME280;30477;48.224;11.470;2023-06-22T02:10:36;96078.97;;;19.98;nan
44751;BME280;30477;48.224;11.470;2023-06-22T02:13:04;96076.34;;;19.92;nan
44751;BME280;30477;48.224;11.470;2023-06-22T02:15:31;96086.44;;;19.95;nan
44751;BME280;30477;48.224;11.470;2023-06-22T02:17:56;96088.88;;;19.96;nan
44751;BME280;30477;48.224;11.470;2023-06-22T02:20:23;96094.53;;;19.93;nan
44751;BME280;30477;48.224;11.470;2023-06-22T02:22:49;96082.00;;;19.89;nan
44751;BME280;30477;48.224;11.470;2023-06-22T02:25:15;96088.41;;;19.79;nan
44751;BME280;30477;48.224;11.470;2023-06-22T02:27:40;96091.22;;;19.71;nan
44751;BME280;30477;48.224;11.470;2023-06-22T02:30:07;96086.72;;;19.65;nan
44751;BME280;30477;48.224;11.470;2023-06-22T02:32:33;96094.22;;;19.68;nan
44751;BME280;30477;48.224;11.470;2023-06-22T02:34:59;96097.44;;;19.63;nan
44751;BME280;30477;48.224;11.470;2023-06-22T02:37:24;96092.53;;;19.54;nan
44751;BME280;30477;48.224;11.470;2023-06-22T02:39:50;96103.81;;;19.47;nan
44751;BME280;30477;48.224;11.470;2023-06-22T02:42:15;96100.16;;;19.42;nan
44751;BME280;30477;48.224;11.470;2023-06-22T02:44:45;96102.13;;;19.33;nan
44751;BME280;30477;48.224;11.470;2023-06-22T02:47:10;96100.88;;;19.29;nan
44751;BME280;30477;48.224;11.470;2023-06-22T02:49:36;96098.25;;;19.29;nan
44751;BME280;30477;48.224;11.470;2023-06-22T02:52:01;96099.66;;;19.25;nan
44751;BME280;30477;48.224;11.470;2023-06-22T02:54:27;96095.81;;;19.27;nan
44751;BME280;30477;48.224;11.470;2023-06-22T02:56:52;96096.03;;;19.26;nan
44751;BME280;30477;48.224;11.470;2023-06-22T02:59:17;96099.66;;;19.25;nan
44751;BME280;30477;48.224;11.470;2023-06-22T03:01:48;96091.78;;;19.25;nan
44751;BME280;30477;48.224;11.470;2023-06-22T03:04:15;96090.41;;;19.29;nan
44751;BME280;30477;48.224;11.470;2023-06-22T03:06:41;96087.34;;;19.25;nan
44751;BME280;30477;48.224;11.470;2023-06-22T03:09:07;96083.09;;;19.24;nan
44751;BME280;30477;48.224;11.470;2023-06-22T03:11:33;96081.69;;;19.22;nan
44751;BME280;30477;48.224;11.470;2023-06-22T03:14:00;96074.59;;;19.16;nan
44751;BME280;30477;48.224;11.470;2023-06-22T03:16:25;96080.06;;;19.21;nan
44751;BME280;30477;48.224;11.470;2023-06-22T03:18:51;96083.25;;;19.16;nan
44751;BME280;30477;48.224;11.470;2023-06-22T03:21:16;96074.16;;;19.12;nan
44751;BME280;30477;48.224;11.470;2023-06-22T03:23:42;96093.13;;;19.14;nan
44751;BME280;30477;48.224;11.470;2023-06-22T03:26:09;96079.59;;;19.11;nan
44751;BME280;30477;48.224;11.470;2023-06-22T03:28:35;96076.97;;;19.11;nan
44751;BME280;30477;48.224;11.470;2023-06-22T03:31:00;96078.78;;;19.10;nan
44751;BME280;30477;48.224;11.470;2023-06-22T03:33:25;96083.22;;;19.10;nan
44751;BME280;30477;48.224;11.470;2023-06-22T03:35:51;96092.34;;;19.14;nan
44751;BME280;30477;48.224;11.470;2023-06-22T03:38:16;96091.53;;;19.13;nan
44751;BME280;30477;48.224;11.470;2023-06-22T03:40:42;96093.94;;;19.15;nan
44751;BME280;30477;48.224;11.470;2023-06-22T03:43:07;96102.22;;;19.12;nan
44751;BME280;30477;48.224;11.470;2023-06-22T03:45:33;96094.72;;;19.09;nan
44751;BME280;30477;48.224;11.470;2023-06-22T03:47:58;96095.94;;;19.13;nan
44751;BME280;30477;48.224;11.470;2023-06-22T03:50:23;96089.91;;;19.12;nan
44751;BME280;30477;48.224;11.470;2023-06-22T03:52:48;96096.72;;;19.06;nan
44751;BME280;30477;48.224;11.470;2023-06-22T03:55:14;96098.97;;;19.10;nan
44751;BME280;30477;48.224;11.470;2023-06-22T03:57:39;96097.34;;;19.09;nan
44751;BME280;30477;48.224;11.470;2023-06-22T04:00:05;96100.56;;;19.11;nan
44751;BME280;30477;48.224;11.470;2023-06-22T04:02:31;96098.00;;;19.17;nan
44751;BME280;30477;48.224;11.470;2023-06-22T04:04:56;96099.03;;;19.23;nan
44751;BME280;30477;48.224;11.470;2023-06-22T04:07:21;96099.31;;;19.35;nan
44751;BME280;30477;48.224;11.470;2023-06-22T04:09:47;96107.78;;;19.30;nan
44751;BME280;30477;48.224;11.470;2023-06-22T04:12:13;96103.13;;;19.32;nan
44751;BME280;30477;48.224;11.470;2023-06-22T04:14:38;96099.94;;;19.37;nan
44751;BME280;30477;48.224;11.470;2023-06-22T04:17:04;96100.56;;;19.45;nan
44751;BME280;30477;48.224;11.470;2023-06-22T04:19:29;96101.06;;;19.62;nan
44751;BME280;30477;48.224;11.470;2023-06-22T04:21:54;96098.25;;;19.64;nan
44751;BME280;30477;48.224;11.470;2023-06-22T04:24:20;96094.47;;;19.73;nan
44751;BME280;30477;48.224;11.470;2023-06-22T04:26:45;96093.28;;;19.82;nan
44751;BME280;30477;48.224;11.470;2023-06-22T04:29:12;96088.69;;;20.04;nan
44751;BME280;30477;48.224;11.470;2023-06-22T04:31:37;96087.53;;;20.20;nan
44751;BME280;30477;48.224;11.470;2023-06-22T04:34:07;96091.56;;;20.16;nan
44751;BME280;30477;48.224;11.470;2023-06-22T04:36:36;96096.44;;;20.39;nan
44751;BME280;30477;48.224;11.470;2023-06-22T04:39:10;96092.59;;;20.42;nan
44751;BME280;30477;48.224;11.470;2023-06-22T04:41:40;96095.22;;;20.42;nan
44751;BME280;30477;48.224;11.470;2023-06-22T04:44:12;96090.78;;;20.56;nan
44751;BME280;30477;48.224;11.470;2023-06-22T04:46:38;96075.84;;;20.76;nan
44751;BME280;30477;48.224;11.470;2023-06-22T04:49:07;96077.25;;;20.85;nan
44751;BME280;30477;48.224;11.470;2023-06-22T04:51:40;96072.38;;;20.96;nan
44751;BME280;30477;48.224;11.470;2023-06-22T04:54:06;96071.16;;;20.98;nan
44751;BME280;30477;48.224;11.470;2023-06-22T04:56:32;96074.97;;;21.16;nan
44751;BME280;30477;48.224;11.470;2023-06-22T04:58:57;96076.13;;;21.33;nan
44751;BME280;30477;48.224;11.470;2023-06-22T05:01:23;96075.91;;;21.55;nan
44751;BME280;30477;48.224;11.470;2023-06-22T05:03:49;96072.56;;;21.73;nan
44751;BME280;30477;48.224;11.470;2023-06-22T05:06:14;96072.00;;;22.09;nan
44751;BME280;30477;48.224;11.470;2023-06-22T05:08:40;96080.63;;;22.23;nan
44751;BME280;30477;48.224;11.470;2023-06-22T05:11:06;96081.09;;;22.45;nan
44751;BME280;30477;48.224;11.470;2023-06-22T05:13:32;96079.16;;;22.59;nan
44751;BME280;30477;48.224;11.470;2023-06-22T05:15:57;96072.22;;;22.64;nan
44751;BME280;30477;48.224;11.470;2023-06-22T05:18:30;96073.59;;;22.92;nan
44751;BME280;30477;48.224;11.470;2023-06-22T05:20:56;96072.03;;;23.28;nan
44751;BME280;30477;48.224;11.470;2023-06-22T05:23:21;96061.31;;;23.41;nan
44751;BME280;30477;48.224;11.470;2023-06-22T05:25:46;96067.66;;;23.59;nan
44751;BME280;30477;48.224;11.470;2023-06-22T05:28:12;96058.25;;;23.63;nan
44751;BME280;30477;48.224;11.470;2023-06-22T05:30:38;96065.00;;;23.59;nan
44751;BME280;30477;48.224;11.470;2023-06-22T05:33:03;96061.41;;;24.02;nan
44751;BME280;30477;48.224;11.470;2023-06-22T05:35:28;96066.44;;;24.34;nan
44751;BME280;30477;48.224;11.470;2023-06-22T05:37:54;96059.56;;;24.33;nan
44751;BME280;30477;48.224;11.470;2023-06-22T05:40:20;96058.97;;;24.30;nan
44751;BME280;30477;48.224;11.470;2023-06-22T05:42:45;96061.56;;;24.61;nan
44751;BME280;30477;48.224;11.470;2023-06-22T05:45:11;96055.72;;;25.06;nan
44751;BME280;30477;48.224;11.470;2023-06-22T05:47:36;96070.09;;;25.22;nan
44751;BME280;30477;48.224;11.470;2023-06-22T05:50:01;96055.66;;;25.53;nan
44751;BME280;30477;48.224;11.470;2023-06-22T05:52:31;96052.38;;;25.10;nan
44751;BME280;30477;48.224;11.470;2023-06-22T05:54:56;96053.88;;;24.95;nan
44751;BME280;30477;48.224;11.470;2023-06-22T05:57:22;96047.66;;;24.77;nan
44751;BME280;30477;48.224;11.470;2023-06-22T05:59:47;96057.31;;;25.07;nan
44751;BME280;30477;48.224;11.470;2023-06-22T06:02:12;96063.47;;;25.60;nan
44751;BME280;30477;48.224;11.470;2023-06-22T06:04:38;96053.94;;;26.16;nan
44751;BME280;30477;48.224;11.470;2023-06-22T06:07:03;96059.31;;;26.04;nan
44751;BME280;30477;48.224;11.470;2023-06-22T06:09:28;96067.34;;;26.09;nan
44751;BME280;30477;48.224;11.470;2023-06-22T06:11:54;96063.59;;;26.22;nan
44751;BME280;30477;48.224;11.470;2023-06-22T06:14:19;96063.16;;;25.97;nan
44751;BME280;30477;48.224;11.470;2023-06-22T06:16:45;96058.47;;;26.32;nan
44751;BME280;30477;48.224;11.470;2023-06-22T06:19:10;96052.41;;;26.66;nan
44751;BME280;30477;48.224;11.470;2023-06-22T06:21:35;96053.53;;;26.70;nan
44751;BME280;30477;48.224;11.470;2023-06-22T06:24:01;96044.59;;;26.59;nan
44751;BME280;30477;48.224;11.470;2023-06-22T06:26:26;96056.25;;;26.75;nan
44751;BME280;30477;48.224;11.470;2023-06-22T06:28:55;96029.66;;;26.92;nan
44751;BME280;30477;48.224;11.470;2023-06-22T06:31:21;96030.34;;;27.04;nan
44751;BME280;30477;48.224;11.470;2023-06-22T06:33:46;96020.72;;;26.98;nan
44751;BME280;30477;48.224;11.470;2023-06-22T06:36:11;96018.19;;;27.08;nan
44751;BME280;30477;48.224;11.470;2023-06-22T06:38:37;96022.53;;;27.14;nan
44751;BME280;30477;48.224;11.470;2023-06-22T06:41:02;96025.47;;;26.96;nan
44751;BME280;30477;48.224;11.470;2023-06-22T06:43:27;96033.44;;;27.35;nan
44751;BME280;30477;48.224;11.470;2023-06-22T06:45:53;96031.72;;;27.68;nan
44751;BME280;30477;48.224;11.470;2023-06-22T06:48:18;96032.81;;;27.72;nan
44751;BME280;30477;48.224;11.470;2023-06-22T06:50:43;96034.22;;;27.80;nan
44751;BME280;30477;48.224;11.470;2023-06-22T06:53:09;96030.59;;;28.13;nan
44751;BME280;30477;48.224;11.470;2023-06-22T06:55:34;96032.00;;;28.21;nan
44751;BME280;30477;48.224;11.470;2023-06-22T06:58:01;96028.34;;;28.59;nan
44751;BME280;30477;48.224;11.470;2023-06-22T07:00:26;96027.03;;;28.02;nan
44751;BME280;30477;48.224;11.470;2023-06-22T07:02:52;96033.34;;;28.50;nan
44751;BME280;30477;48.224;11.470;2023-06-22T07:05:17;96036.72;;;28.46;nan
44751;BME280;30477;48.224;11.470;2023-06-22T07:07:43;96030.91;;;28.49;nan
44751;BME280;30477;48.224;11.470;2023-06-22T07:10:09;96028.97;;;28.77;nan
44751;BME280;30477;48.224;11.470;2023-06-22T07:12:34;96026.75;;;29.06;nan
44751;BME280;30477;48.224;11.470;2023-06-22T07:15:09;96021.72;;;29.04;nan
44751;BME280;30477;48.224;11.470;2023-06-22T07:17:35;96025.31;;;29.30;nan
44751;BME280;30477;48.224;11.470;2023-06-22T07:20:02;96030.41;;;29.37;nan
44751;BME280;30477;48.224;11.470;2023-06-22T07:22:29;96031.47;;;29.36;nan
44751;BME280;30477;48.224;11.470;2023-06-22T07:24:55;96025.22;;;29.73;nan
44751;BME280;30477;48.224;11.470;2023-06-22T07:27:21;96031.13;;;29.85;nan
44751;BME280;30477;48.224;11.470;2023-06-22T07:29:46;96014.19;;;28.96;nan
44751;BME280;30477;48.224;11.470;2023-06-22T07:32:12;96034.22;;;28.66;nan
44751;BME280;30477;48.224;11.470;2023-06-22T07:34:37;96017.28;;;28.78;nan
44751;BME280;30477;48.224;11.470;2023-06-22T07:37:03;96013.22;;;28.70;nan
44751;BME280;30477;48.224;11.470;2023-06-22T07:39:30;96005.28;;;29.18;nan
44751;BME280;30477;48.224;11.470;2023-06-22T07:41:55;95993.56;;;29.24;nan
44751;BME280;30477;48.224;11.470;2023-06-22T07:44:20;95981.13;;;29.45;nan
44751;BME280;30477;48.224;11.470;2023-06-22T07:46:46;95990.25;;;29.69;nan
44751;BME280;30477;48.224;11.470;2023-06-22T07:49:11;95991.09;;;29.80;nan
44751;BME280;30477;48.224;11.470;2023-06-22T07:51:37;95986.16;;;29.36;nan
44751;BME280;30477;48.224;11.470;2023-06-22T07:54:02;95992.88;;;29.54;nan
44751;BME280;30477;48.224;11.470;2023-06-22T07:56:27;95988.97;;;29.82;nan
44751;BME280;30477;48.224;11.470;2023-06-22T07:58:53;95994.84;;;30.05;nan
44751;BME280;30477;48.224;11.470;2023-06-22T08:01:18;95996.56;;;29.43;nan
44751;BME280;30477;48.224;11.470;2023-06-22T08:03:48;95992.09;;;29.64;nan
44751;BME280;30477;48.224;11.470;2023-06-22T08:06:14;95982.84;;;29.92;nan
44751;BME280;30477;48.224;11.470;2023-06-22T08:08:39;95993.25;;;29.88;nan
44751;BME280;30477;48.224;11.470;2023-06-22T08:11:05;95986.06;;;30.14;nan
44751;BME280;30477;48.224;11.470;2023-06-22T08:13:31;95989.00;;;30.08;nan
44751;BME280;30477;48.224;11.470;2023-06-22T08:15:56;95981.13;;;29.50;nan
44751;BME280;30477;48.224;11.470;2023-06-22T08:18:21;95994.19;;;29.51;nan
44751;BME280;30477;48.224;11.470;2023-06-22T08:20:47;95988.59;;;29.58;nan
44751;BME280;30477;48.224;11.470;2023-06-22T08:23:12;95994.38;;;29.24;nan
44751;BME280;30477;48.224;11.470;2023-06-22T08:25:37;95980.66;;;29.05;nan
44751;BME280;30477;48.224;11.470;2023-06-22T08:28:03;95978.19;;;28.93;nan
44751;BME280;30477;48.224;11.470;2023-06-22T08:30:29;95974.19;;;28.91;nan
44751;BME280;30477;48.224;11.470;2023-06-22T08:32:55;95980.38;;;29.02;nan
44751;BME280;30477;48.224;11.470;2023-06-22T08:35:21;95977.56;;;29.24;nan
44751;BME280;30477;48.224;11.470;2023-06-22T08:37:47;95973.41;;;28.90;nan
44751;BME280;30477;48.224;11.470;2023-06-22T08:40:16;95971.28;;;28.92;nan
44751;BME280;30477;48.224;11.470;2023-06-22T08:42:42;95981.19;;;29.02;nan
44751;BME280;30477;48.224;11.470;2023-06-22T08:45:08;95980.38;;;28.54;nan
44751;BME280;30477;48.224;11.470;2023-06-22T08:47:33;95980.88;;;28.51;nan
44751;BME280;30477;48.224;11.470;2023-06-22T08:49:58;95985.97;;;28.20;nan
44751;BME280;30477;48.224;11.470;2023-06-22T08:52:24;95988.66;;;28.25;nan
44751;BME280;30477;48.224;11.470;2023-06-22T08:54:49;95977.47;;;28.28;nan
44751;BME280;30477;48.224;11.470;2023-06-22T08:57:15;95988.22;;;28.39;nan
44751;BME280;30477;48.224;11.470;2023-06-22T08:59:41;95978.22;;;28.51;nan
44751;BME280;30477;48.224;11.470;2023-06-22T09:02:07;95969.50;;;28.61;nan
44751;BME280;30477;48.224;11.470;2023-06-22T09:04:32;95972.78;;;28.73;nan
44751;BME280;30477;48.224;11.470;2023-06-22T09:07:01;95969.94;;;28.95;nan
44751;BME280;30477;48.224;11.470;2023-06-22T09:09:26;95974.19;;;28.91;nan
44751;BME280;30477;48.224;11.470;2023-06-22T09:11:52;95976.44;;;29.14;nan
44751;BME280;30477;48.224;11.470;2023-06-22T09:14:17;95956.78;;;29.31;nan
44751;BME280;30477;48.224;11.470;2023-06-22T09:16:43;95968.88;;;29.59;nan
44751;BME280;30477;48.224;11.470;2023-06-22T09:19:08;95962.66;;;29.28;nan
44751;BME280;30477;48.224;11.470;2023-06-22T09:21:34;95969.03;;;29.27;nan
44751;BME280;30477;48.224;11.470;2023-06-22T09:23:59;95966.94;;;29.34;nan
44751;BME280;30477;48.224;11.470;2023-06-22T09:26:24;95966.16;;;29.44;nan
44751;BME280;30477;48.224;11.470;2023-06-22T09:28:50;95964.06;;;29.56;nan
44751;BME280;30477;48.224;11.470;2023-06-22T09:31:15;95954.81;;;29.84;nan
44751;BME280;30477;48.224;11.470;2023-06-22T09:33:42;95958.03;;;30.17;nan
44751;BME280;30477;48.224;11.470;2023-06-22T09:36:07;95948.97;;;30.18;nan
44751;BME280;30477;48.224;11.470;2023-06-22T09:38:36;95942.81;;;30.38;nan
44751;BME280;30477;48.224;11.470;2023-06-22T09:41:01;95939.09;;;30.13;nan
44751;BME280;30477;48.224;11.470;2023-06-22T09:43:27;95949.75;;;30.08;nan
44751;BME280;30477;48.224;11.470;2023-06-22T09:45:53;95941.75;;;30.13;nan
44751;BME280;30477;48.224;11.470;2023-06-22T09:48:18;95940.41;;;29.90;nan
44751;BME280;30477;48.224;11.470;2023-06-22T09:50:44;95939.81;;;29.68;nan
44751;BME280;30477;48.224;11.470;2023-06-22T09:53:09;95951.06;;;29.85;nan
44751;BME280;30477;48.224;11.470;2023-06-22T09:55:34;95938.81;;;29.84;nan
44751;BME280;30477;48.224;11.470;2023-06-22T09:58:00;95931.59;;;29.80;nan
44751;BME280;30477;48.224;11.470;2023-06-22T10:00:25;95935.00;;;29.65;nan
44751;BME280;30477;48.224;11.470;2023-06-22T10:02:52;95925.19;;;29.75;nan
44751;BME280;30477;48.224;11.470;2023-06-22T10:05:17;95922.25;;;29.87;nan
44751;BME280;30477;48.224;11.470;2023-06-22T10:07:43;95930.25;;;29.72;nan
44751;BME280;30477;48.224;11.470;2023-06-22T10:10:10;95931.34;;;29.86;nan
44751;BME280;30477;48.224;11.470;2023-06-22T10:12:36;95925.22;;;30.01;nan
44751;BME280;30477;48.224;11.470;2023-06-22T10:15:01;95916.66;;;30.04;nan
44751;BME280;30477;48.224;11.470;2023-06-22T10:17:26;95925.47;;;29.89;nan
44751;BME280;30477;48.224;11.470;2023-06-22T10:19:52;95926.53;;;29.88;nan
44751;BME280;30477;48.224;11.470;2023-06-22T10:22:17;95921.19;;;29.93;nan
44751;BME280;30477;48.224;11.470;2023-06-22T10:24:43;95927.59;;;29.87;nan
44751;BME280;30477;48.224;11.470;2023-06-22T10:27:13;95926.53;;;29.88;nan
44751;BME280;30477;48.224;11.470;2023-06-22T10:29:38;95914.78;;;30.00;nan
44751;BME280;30477;48.224;11.470;2023-06-22T10:32:04;95912.09;;;30.25;nan
44751;BME280;30477;48.224;11.470;2023-06-22T10:34:30;95913.19;;;30.14;nan
44751;BME280;30477;48.224;11.470;2023-06-22T10:36:55;95911.03;;;30.11;nan
44751;BME280;30477;48.224;11.470;2023-06-22T10:39:20;95906.22;;;30.13;nan
44751;BME280;30477;48.224;11.470;2023-06-22T10:41:46;95900.88;;;30.23;nan
44751;BME280;30477;48.224;11.470;2023-06-22T10:44:11;95905.16;;;30.24;nan
44751;BME280;30477;48.224;11.470;2023-06-22T10:46:37;95891.56;;;30.21;nan
44751;BME280;30477;48.224;11.470;2023-06-22T10:49:03;95889.16;;;30.24;nan
44751;BME280;30477;48.224;11.470;2023-06-22T10:51:28;95880.63;;;30.32;nan
44751;BME280;30477;48.224;11.470;2023-06-22T10:53:53;95881.13;;;30.19;nan
44751;BME280;30477;48.224;11.470;2023-06-22T10:56:19;95879.56;;;30.08;nan
44751;BME280;30477;48.224;11.470;2023-06-22T10:58:45;95876.34;;;30.06;nan
44751;BME280;30477;48.224;11.470;2023-06-22T11:01:11;95880.09;;;30.05;nan
44751;BME280;30477;48.224;11.470;2023-06-22T11:03:36;95878.78;;;29.97;nan
44751;BME280;30477;48.224;11.470;2023-06-22T11:06:01;95877.16;;;29.96;nan
44751;BME280;30477;48.224;11.470;2023-06-22T11:08:26;95881.16;;;29.99;nan
44751;BME280;30477;48.224;11.470;2023-06-22T11:10:52;95888.09;;;30.10;nan
44751;BME280;30477;48.224;11.470;2023-06-22T11:13:17;95886.50;;;30.14;nan
44751;BME280;30477;48.224;11.470;2023-06-22T11:15:43;95871.81;;;30.17;nan
44751;BME280;30477;48.224;11.470;2023-06-22T11:18:08;95882.22;;;30.33;nan
44751;BME280;30477;48.224;11.470;2023-06-22T11:20:34;95871.00;;;30.37;nan
44751;BME280;30477;48.224;11.470;2023-06-22T11:23:06;95869.66;;;30.34;nan
44751;BME280;30477;48.224;11.470;2023-06-22T11:25:32;95873.66;;;30.21;nan
44751;BME280;30477;48.224;11.470;2023-06-22T11:28:00;95867.78;;;30.24;nan
44751;BME280;30477;48.224;11.470;2023-06-22T11:30:26;95870.16;;;30.46;nan
44751;BME280;30477;48.224;11.470;2023-06-22T11:32:52;95860.72;;;30.74;nan
44751;BME280;30477;48.224;11.470;2023-06-22T11:35:17;95856.41;;;30.84;nan
44751;BME280;30477;48.224;11.470;2023-06-22T11:37:43;95854.81;;;30.88;nan
44751;BME280;30477;48.224;11.470;2023-06-22T11:40:08;95857.00;;;30.65;nan
44751;BME280;30477;48.224;11.470;2023-06-22T11:42:34;95841.56;;;30.52;nan
44751;BME280;30477;48.224;11.470;2023-06-22T11:45:00;95849.56;;;30.62;nan
44751;BME280;30477;48.224;11.470;2023-06-22T11:47:25;95837.25;;;30.66;nan
44751;BME280;30477;48.224;11.470;2023-06-22T11:49:51;95829.47;;;30.75;nan
44751;BME280;30477;48.224;11.470;2023-06-22T11:52:16;95833.19;;;30.79;nan
44751;BME280;30477;48.224;11.470;2023-06-22T11:54:43;95830.78;;;30.78;nan
44751;BME280;30477;48.224;11.470;2023-06-22T11:57:08;95834.78;;;30.80;nan
44751;BME280;30477;48.224;11.470;2023-06-22T11:59:33;95829.69;;;30.89;nan
44751;BME280;30477;48.224;11.470;2023-06-22T12:01:59;95828.34;;;30.91;nan
44751;BME280;30477;48.224;11.470;2023-06-22T12:04:24;95821.13;;;30.87;nan
44751;BME280;30477;48.224;11.470;2023-06-22T12:06:50;95821.66;;;30.84;nan
44751;BME280;30477;48.224;11.470;2023-06-22T12:09:15;95824.84;;;30.96;nan
44751;BME280;30477;48.224;11.470;2023-06-22T12:11:40;95822.72;;;30.93;nan
44751;BME280;30477;48.224;11.470;2023-06-22T12:14:06;95819.97;;;31.03;nan
44751;BME280;30477;48.224;11.470;2023-06-22T12:16:31;95809.22;;;31.13;nan
44751;BME280;30477;48.224;11.470;2023-06-22T12:18:56;95803.88;;;31.13;nan
44751;BME280;30477;48.224;11.470;2023-06-22T12:21:22;95804.91;;;31.23;nan
44751;BME280;30477;48.224;11.470;2023-06-22T12:23:47;95797.84;;;31.37;nan
44751;BME280;30477;48.224;11.470;2023-06-22T12:26:13;95795.00;;;31.23;nan
44751;BME280;30477;48.224;11.470;2023-06-22T12:28:38;95794.22;;;31.18;nan
44751;BME280;30477;48.224;11.470;2023-06-22T12:31:03;95786.97;;;31.23;nan
44751;BME280;30477;48.224;11.470;2023-06-22T12:33:29;95799.50;;;31.28;nan
44751;BME280;30477;48.224;11.470;2023-06-22T12:35:55;95792.06;;;31.25;nan
44751;BME280;30477;48.224;11.470;2023-06-22T12:38:21;95793.66;;;31.26;nan
44751;BME280;30477;48.224;11.470;2023-06-22T12:40:46;95783.72;;;31.31;nan
44751;BME280;30477;48.224;11.470;2023-06-22T12:43:12;95781.31;;;31.30;nan
44751;BME280;30477;48.224;11.470;2023-06-22T12:45:37;95789.13;;;31.21;nan
44751;BME280;30477;48.224;11.470;2023-06-22T12:48:03;95779.81;;;31.19;nan
44751;BME280;30477;48.224;11.470;2023-06-22T12:50:28;95776.03;;;31.20;nan
44751;BME280;30477;48.224;11.470;2023-06-22T12:52:53;95774.47;;;31.19;nan
44751;BME280;30477;48.224;11.470;2023-06-22T12:55:19;95777.16;;;31.13;nan
44751;BME280;30477;48.224;11.470;2023-06-22T12:57:44;95777.16;;;31.13;nan
44751;BME280;30477;48.224;11.470;2023-06-22T13:00:10;95766.44;;;31.19;nan
44751;BME280;30477;48.224;11.470;2023-06-22T13:02:36;95766.38;;;31.24;nan
44751;BME280;30477;48.224;11.470;2023-06-22T13:05:02;95761.59;;;31.21;nan
44751;BME280;30477;48.224;11.470;2023-06-22T13:07:28;95770.16;;;31.23;nan